createdAt,value
2018-04-22T00:00:17.618Z,0
2018-04-22T00:01:17.364Z,0
2018-04-22T00:02:17.852Z,0
2018-04-22T00:03:17.846Z,0
2018-04-22T00:04:17.834Z,0
2018-04-22T00:05:17.830Z,0
2018-04-22T00:06:17.818Z,0
2018-04-22T00:07:17.560Z,0
2018-04-22T00:08:17.556Z,0
2018-04-22T00:09:17.305Z,0
2018-04-22T00:10:17.790Z,0
2018-04-22T00:11:17.543Z,0
2018-04-22T00:12:17.777Z,0
2018-04-22T00:13:17.515Z,0
2018-04-22T00:14:17.761Z,0
2018-04-22T00:15:17.497Z,0
2018-04-22T00:16:17.496Z,0
2018-04-22T00:17:17.744Z,0
2018-04-22T00:18:17.740Z,0
2018-04-22T00:19:17.227Z,0
2018-04-22T00:20:17.715Z,0
2018-04-22T00:21:17.200Z,0
2018-04-22T00:22:17.701Z,0
2018-04-22T00:23:17.687Z,0
2018-04-22T00:24:17.681Z,0
2018-04-22T00:25:17.416Z,0
2018-04-22T00:26:17.413Z,0
2018-04-22T00:27:17.421Z,0
2018-04-22T00:28:17.138Z,0
2018-04-22T00:29:17.640Z,0
2018-04-22T00:30:17.125Z,0
2018-04-22T00:31:17.623Z,0
2018-04-22T00:32:17.623Z,0
2018-04-22T00:33:17.606Z,0
2018-04-22T00:34:17.597Z,0
2018-04-22T00:35:17.344Z,0
2018-04-22T00:36:17.581Z,0
2018-04-22T00:37:17.575Z,0
2018-04-22T00:38:17.569Z,0
2018-04-22T00:39:17.557Z,0
2018-04-22T00:40:17.551Z,0
2018-04-22T00:41:17.560Z,0
2018-04-22T00:42:17.280Z,0
2018-04-22T00:43:17.279Z,0
2018-04-22T00:44:17.527Z,0
2018-04-22T00:45:17.267Z,0
2018-04-22T00:46:17.501Z,0
2018-04-22T00:47:17.255Z,0
2018-04-22T00:48:17.532Z,0
2018-04-22T00:49:17.484Z,0
2018-04-22T00:50:17.216Z,0
2018-04-22T00:51:17.468Z,0
2018-04-22T00:52:17.459Z,0
2018-04-22T00:53:17.206Z,0
2018-04-22T00:54:17.189Z,0
2018-04-22T00:55:17.183Z,0
2018-04-22T00:56:17.427Z,0
2018-04-22T00:57:17.432Z,0
2018-04-22T00:58:17.405Z,0
2018-04-22T00:59:17.409Z,0
2018-04-22T01:00:17.138Z,0
2018-04-22T01:01:17.397Z,0
2018-04-22T01:02:17.381Z,0
2018-04-22T01:03:17.374Z,0
2018-04-22T01:04:17.365Z,0
2018-04-22T01:05:17.346Z,0
2018-04-22T01:06:17.370Z,0
2018-04-22T01:07:17.332Z,0
2018-04-22T01:08:16.826Z,0
2018-04-22T01:09:17.323Z,0
2018-04-22T01:10:17.313Z,0
2018-04-22T01:11:17.305Z,0
2018-04-22T01:12:17.039Z,0
2018-04-22T01:13:17.370Z,0
2018-04-22T01:14:17.023Z,0
2018-04-22T01:15:17.289Z,0
2018-04-22T01:16:17.061Z,0
2018-04-22T01:17:16.994Z,0
2018-04-22T01:18:16.993Z,0
2018-04-22T01:19:16.985Z,0
2018-04-22T01:20:16.970Z,0
2018-04-22T01:21:17.224Z,0
2018-04-22T01:22:17.209Z,0
2018-04-22T01:23:16.943Z,0
2018-04-22T01:24:17.198Z,0
2018-04-22T01:25:17.183Z,0
2018-04-22T01:26:17.177Z,0
2018-04-22T01:27:16.915Z,0
2018-04-22T01:28:16.905Z,0
2018-04-22T01:29:16.900Z,0
2018-04-22T01:30:16.887Z,0
2018-04-22T01:31:17.135Z,0
2018-04-22T01:32:16.875Z,0
2018-04-22T01:33:16.884Z,0
2018-04-22T01:34:16.853Z,0
2018-04-22T01:35:16.845Z,0
2018-04-22T01:36:16.592Z,0
2018-04-22T01:37:17.077Z,0
2018-04-22T01:38:16.823Z,0
2018-04-22T01:39:17.065Z,0
2018-04-22T01:40:17.058Z,0
2018-04-22T01:41:17.049Z,0
2018-04-22T01:42:16.544Z,0
2018-04-22T01:43:17.031Z,0
2018-04-22T01:44:16.767Z,0
2018-04-22T01:45:17.012Z,0
2018-04-22T01:46:16.756Z,0
2018-04-22T01:47:16.746Z,0
2018-04-22T01:48:16.982Z,0
2018-04-22T01:49:16.977Z,0
2018-04-22T01:50:16.716Z,0
2018-04-22T01:51:16.956Z,0
2018-04-22T01:52:16.958Z,0
2018-04-22T01:53:16.688Z,0
2018-04-22T01:54:16.937Z,0
2018-04-22T01:55:16.925Z,0
2018-04-22T01:56:16.923Z,0
2018-04-22T01:57:16.912Z,0
2018-04-22T01:58:16.646Z,0
2018-04-22T01:59:16.900Z,0
2018-04-22T02:00:16.629Z,0
2018-04-22T02:01:16.616Z,0
2018-04-22T02:02:16.861Z,0
2018-04-22T02:03:16.851Z,0
2018-04-22T02:04:16.845Z,0
2018-04-22T02:05:16.583Z,0
2018-04-22T02:06:16.570Z,0
2018-04-22T02:07:16.816Z,0
2018-04-22T02:08:16.824Z,0
2018-04-22T02:09:16.801Z,0
2018-04-22T02:10:16.797Z,0
2018-04-22T02:11:16.793Z,0
2018-04-22T02:12:16.776Z,0
2018-04-22T02:13:16.516Z,0
2018-04-22T02:14:16.752Z,0
2018-04-22T02:15:16.751Z,0
2018-04-22T02:16:16.482Z,0
2018-04-22T02:17:16.472Z,0
2018-04-22T02:18:16.716Z,0
2018-04-22T02:19:16.714Z,0
2018-04-22T02:20:16.706Z,0
2018-04-22T02:21:16.699Z,0
2018-04-22T02:22:16.428Z,0
2018-04-22T02:23:16.672Z,0
2018-04-22T02:24:16.672Z,0
2018-04-22T02:25:16.663Z,0
2018-04-22T02:26:16.646Z,0
2018-04-22T02:27:16.755Z,0
2018-04-22T02:28:16.627Z,0
2018-04-22T02:29:16.618Z,0
2018-04-22T02:30:16.369Z,0
2018-04-22T02:31:16.348Z,0
2018-04-22T02:32:16.348Z,0
2018-04-22T02:33:16.335Z,0
2018-04-22T02:34:16.585Z,0
2018-04-22T02:35:16.323Z,0
2018-04-22T02:36:16.553Z,0
2018-04-22T02:37:16.555Z,0
2018-04-22T02:38:16.541Z,0
2018-04-22T02:39:16.533Z,0
2018-04-22T02:40:16.523Z,0
2018-04-22T02:41:16.525Z,0
2018-04-22T02:42:16.510Z,0
2018-04-22T02:43:16.494Z,0
2018-04-22T02:44:16.226Z,0
2018-04-22T02:45:16.477Z,0
2018-04-22T02:46:16.464Z,0
2018-04-22T02:47:15.706Z,0
2018-04-22T02:48:16.449Z,0
2018-04-22T02:49:16.444Z,0
2018-04-22T02:50:16.426Z,0
2018-04-22T02:51:15.933Z,0
2018-04-22T02:52:16.417Z,0
2018-04-22T02:53:16.403Z,0
2018-04-22T02:54:16.136Z,0
2018-04-22T02:55:16.380Z,0
2018-04-22T02:56:16.381Z,0
2018-04-22T02:57:16.362Z,0
2018-04-22T02:58:16.358Z,0
2018-04-22T02:59:16.342Z,0
2018-04-22T03:00:16.081Z,0
2018-04-22T03:01:16.080Z,0
2018-04-22T03:02:16.323Z,0
2018-04-22T03:03:16.303Z,0
2018-04-22T03:04:16.041Z,0
2018-04-22T03:05:16.053Z,0
2018-04-22T03:06:16.022Z,0
2018-04-22T03:07:16.282Z,0
2018-04-22T03:08:16.265Z,0
2018-04-22T03:09:16.256Z,0
2018-04-22T03:10:16.248Z,0
2018-04-22T03:11:16.227Z,0
2018-04-22T03:12:15.977Z,0
2018-04-22T03:13:16.208Z,4
2018-04-22T03:14:15.697Z,4
2018-04-22T03:15:15.955Z,0
2018-04-22T03:16:16.198Z,4
2018-04-22T03:17:16.173Z,4
2018-04-22T03:18:16.166Z,4
2018-04-22T03:19:15.903Z,4
2018-04-22T03:20:15.905Z,4
2018-04-22T03:21:15.881Z,4
2018-04-22T03:22:16.267Z,8
2018-04-22T03:23:16.114Z,8
2018-04-22T03:24:15.854Z,8
2018-04-22T03:25:16.100Z,12
2018-04-22T03:26:16.087Z,12
2018-04-22T03:27:16.081Z,12
2018-04-22T03:28:16.072Z,16
2018-04-22T03:29:15.809Z,20
2018-04-22T03:30:16.075Z,24
2018-04-22T03:31:15.541Z,28
2018-04-22T03:32:16.034Z,32
2018-04-22T03:33:16.026Z,36
2018-04-22T03:34:16.013Z,40
2018-04-22T03:35:16.008Z,48
2018-04-22T03:36:15.992Z,52
2018-04-22T03:37:15.983Z,64
2018-04-22T03:38:15.973Z,68
2018-04-22T03:39:15.968Z,80
2018-04-22T03:40:15.707Z,92
2018-04-22T03:41:15.455Z,104
2018-04-22T03:42:15.691Z,116
2018-04-22T03:43:15.935Z,136
2018-04-22T03:44:15.668Z,152
2018-04-22T03:45:15.913Z,168
2018-04-22T03:46:15.903Z,188
2018-04-22T03:47:15.889Z,212
2018-04-22T03:48:15.883Z,236
2018-04-22T03:49:15.871Z,264
2018-04-22T03:50:15.616Z,288
2018-04-22T03:51:15.853Z,320
2018-04-22T03:52:15.849Z,348
2018-04-22T03:53:15.835Z,380
2018-04-22T03:54:15.829Z,412
2018-04-22T03:55:15.833Z,448
2018-04-22T03:56:15.807Z,488
2018-04-22T03:57:15.547Z,528
2018-04-22T03:58:15.534Z,572
2018-04-22T03:59:15.793Z,620
2018-04-22T04:00:15.769Z,664
2018-04-22T04:01:15.762Z,716
2018-04-22T04:02:15.499Z,768
2018-04-22T04:03:15.500Z,824
2018-04-22T04:04:15.744Z,884
2018-04-22T04:05:15.722Z,940
2018-04-22T04:06:15.469Z,1004
2018-04-22T04:07:15.702Z,1068
2018-04-22T04:08:15.692Z,1136
2018-04-22T04:09:15.680Z,1204
2018-04-22T04:10:15.689Z,1276
2018-04-22T04:11:15.670Z,1348
2018-04-22T04:12:15.403Z,1424
2018-04-22T04:13:15.394Z,1504
2018-04-22T04:14:15.390Z,1600
2018-04-22T04:15:15.632Z,1752
2018-04-22T04:16:15.615Z,1896
2018-04-22T04:17:15.355Z,2020
2018-04-22T04:18:15.599Z,2148
2018-04-22T04:19:15.848Z,2276
2018-04-22T04:20:15.592Z,2376
2018-04-22T04:21:15.577Z,2500
2018-04-22T04:22:15.312Z,2644
2018-04-22T04:23:15.299Z,2792
2018-04-22T04:24:15.298Z,2940
2018-04-22T04:25:15.285Z,3064
2018-04-22T04:26:15.272Z,3192
2018-04-22T04:27:15.520Z,3304
2018-04-22T04:28:15.512Z,3528
2018-04-22T04:29:15.511Z,3784
2018-04-22T04:30:15.496Z,4072
2018-04-22T04:31:15.234Z,4228
2018-04-22T04:32:15.478Z,4476
2018-04-22T04:33:15.474Z,4672
2018-04-22T04:34:15.514Z,4784
2018-04-22T04:35:15.459Z,4868
2018-04-22T04:36:15.502Z,5104
2018-04-22T04:37:15.441Z,5268
2018-04-22T04:38:15.435Z,5560
2018-04-22T04:39:15.426Z,5972
2018-04-22T04:40:15.424Z,6240
2018-04-22T04:41:14.915Z,6404
2018-04-22T04:42:15.417Z,6544
2018-04-22T04:43:15.412Z,6672
2018-04-22T04:44:15.397Z,7016
2018-04-22T04:45:15.392Z,6972
2018-04-22T04:46:15.440Z,7052
2018-04-22T04:47:15.392Z,7708
2018-04-22T04:48:15.393Z,7808
2018-04-22T04:49:15.121Z,8236
2018-04-22T04:50:15.377Z,9180
2018-04-22T04:51:15.108Z,9476
2018-04-22T04:52:15.355Z,9756
2018-04-22T04:53:15.358Z,9688
2018-04-22T04:54:15.348Z,10000
2018-04-22T04:55:15.099Z,10356
2018-04-22T04:56:14.834Z,10692
2018-04-22T04:57:15.348Z,11204
2018-04-22T04:58:15.340Z,11348
2018-04-22T04:59:15.335Z,11080
2018-04-22T05:00:15.380Z,11388
2018-04-22T05:01:15.323Z,11776
2018-04-22T05:02:15.336Z,12584
2018-04-22T05:03:15.319Z,12980
2018-04-22T05:04:15.325Z,12820
2018-04-22T05:05:15.312Z,12748
2018-04-22T05:06:15.318Z,12684
2018-04-22T05:07:15.316Z,12624
2018-04-22T05:08:14.803Z,12588
2018-04-22T05:09:15.322Z,12544
2018-04-22T05:10:15.306Z,11996
2018-04-22T05:11:15.310Z,11224
2018-04-22T05:12:15.309Z,10700
2018-04-22T05:13:15.052Z,11180
2018-04-22T05:14:15.309Z,11016
2018-04-22T05:15:15.321Z,11224
2018-04-22T05:16:14.804Z,11024
2018-04-22T05:17:15.313Z,11036
2018-04-22T05:18:15.306Z,11128
2018-04-22T05:19:15.320Z,11044
2018-04-22T05:20:15.064Z,11776
2018-04-22T05:21:14.800Z,11304
2018-04-22T05:22:15.306Z,11060
2018-04-22T05:23:15.312Z,10236
2018-04-22T05:24:15.368Z,8988
2018-04-22T05:25:15.311Z,8536
2018-04-22T05:26:15.333Z,9260
2018-04-22T05:27:15.057Z,11192
2018-04-22T05:28:15.317Z,10544
2018-04-22T05:29:15.064Z,10844
2018-04-22T05:30:15.317Z,11596
2018-04-22T05:31:15.439Z,12756
2018-04-22T05:32:15.324Z,13360
2018-04-22T05:33:15.317Z,13128
2018-04-22T05:34:15.321Z,13212
2018-04-22T05:35:15.082Z,14156
2018-04-22T05:36:15.067Z,15072
2018-04-22T05:37:15.322Z,15744
2018-04-22T05:38:15.319Z,15936
2018-04-22T05:39:15.329Z,15072
2018-04-22T05:40:15.323Z,15520
2018-04-22T05:41:15.331Z,16896
2018-04-22T05:42:15.334Z,17696
2018-04-22T05:43:15.334Z,15968
2018-04-22T05:44:15.342Z,18976
2018-04-22T05:45:15.334Z,20448
2018-04-22T05:46:15.335Z,21920
2018-04-22T05:47:15.338Z,22496
2018-04-22T05:48:15.343Z,23008
2018-04-22T05:49:15.344Z,23776
2018-04-22T05:50:15.344Z,24608
2018-04-22T05:51:15.096Z,24864
2018-04-22T05:52:15.362Z,25568
2018-04-22T05:53:15.363Z,26176
2018-04-22T05:54:15.109Z,26400
2018-04-22T05:55:15.368Z,26272
2018-04-22T05:56:15.377Z,27104
2018-04-22T05:57:15.375Z,29536
2018-04-22T05:58:15.127Z,30368
2018-04-22T05:59:15.388Z,28480
2018-04-22T06:00:15.396Z,25600
2018-04-22T06:01:16.675Z,25600
2018-04-22T06:02:15.230Z,28960
2018-04-22T06:03:15.420Z,31520
2018-04-22T06:04:19.234Z,28160
2018-04-22T06:05:15.165Z,27936
2018-04-22T06:06:15.462Z,26816
2018-04-22T06:07:15.186Z,25024
2018-04-22T06:08:15.439Z,22752
2018-04-22T06:09:15.458Z,23232
2018-04-22T06:10:15.456Z,26176
2018-04-22T06:11:15.484Z,28704
2018-04-22T06:12:15.478Z,28608
2018-04-22T06:13:15.478Z,26656
2018-04-22T06:14:14.976Z,24768
2018-04-22T06:15:14.983Z,23072
2018-04-22T06:16:15.240Z,22432
2018-04-22T06:17:15.520Z,23264
2018-04-22T06:18:15.261Z,25024
2018-04-22T06:19:15.271Z,25728
2018-04-22T06:20:15.531Z,25344
2018-04-22T06:21:15.287Z,25696
2018-04-22T06:22:15.310Z,27104
2018-04-22T06:23:15.554Z,28800
2018-04-22T06:24:15.561Z,28672
2018-04-22T06:25:15.318Z,26880
2018-04-22T06:26:15.335Z,27648
2018-04-22T06:27:15.083Z,31584
2018-04-22T06:28:15.379Z,36768
2018-04-22T06:29:15.618Z,42080
2018-04-22T06:30:15.362Z,42848
2018-04-22T06:31:15.373Z,42592
2018-04-22T06:32:15.642Z,41536
2018-04-22T06:33:15.642Z,43744
2018-04-22T06:34:15.403Z,48064
2018-04-22T06:35:15.667Z,53248
2018-04-22T06:36:15.675Z,56832
2018-04-22T06:37:15.429Z,55040
2018-04-22T06:38:15.701Z,53856
2018-04-22T06:39:15.459Z,55040
2018-04-22T06:40:15.794Z,55072
2018-04-22T06:41:15.473Z,60640
2018-04-22T06:42:15.483Z,71232
2018-04-22T06:43:15.493Z,80800
2018-04-22T06:44:15.501Z,80992
2018-04-22T06:45:15.772Z,73984
2018-04-22T06:46:15.589Z,67264
2018-04-22T06:47:15.794Z,62656
2018-04-22T06:48:15.802Z,58496
2018-04-22T06:49:15.557Z,53216
2018-04-22T06:50:15.577Z,50752
2018-04-22T06:51:15.077Z,51840
2018-04-22T06:52:15.844Z,51808
2018-04-22T06:53:15.618Z,49792
2018-04-22T06:54:15.869Z,49984
2018-04-22T06:55:15.877Z,53600
2018-04-22T06:56:15.888Z,54368
2018-04-22T06:57:15.665Z,53984
2018-04-22T06:58:15.926Z,53472
2018-04-22T06:59:15.933Z,46816
2018-04-22T07:00:15.683Z,43136
2018-04-22T07:01:15.692Z,44000
2018-04-22T07:02:15.705Z,43712
2018-04-22T07:04:16.001Z,39680
2018-04-22T07:05:15.487Z,38112
2018-04-22T07:06:16.010Z,36128
2018-04-22T07:07:16.016Z,33536
2018-04-22T07:08:16.028Z,32832
2018-04-22T07:09:15.789Z,32320
2018-04-22T07:10:15.555Z,33984
2018-04-22T07:11:15.809Z,27872
2018-04-22T07:12:16.084Z,37248
2018-04-22T07:13:15.834Z,42400
2018-04-22T07:14:16.099Z,40864
2018-04-22T07:15:16.116Z,44160
2018-04-22T07:16:16.127Z,47424
2018-04-22T07:17:15.887Z,51424
2018-04-22T07:18:16.145Z,55936
2018-04-22T07:19:16.165Z,54144
2018-04-22T07:20:16.175Z,52096
2018-04-22T07:21:15.928Z,54592
2018-04-22T07:22:15.946Z,56160
2018-04-22T07:23:16.208Z,52576
2018-04-22T07:24:16.050Z,46816
2018-04-22T07:25:15.979Z,46272
2018-04-22T07:26:15.988Z,49568
2018-04-22T07:27:16.259Z,51136
2018-04-22T07:28:16.278Z,49856
2018-04-22T07:29:16.357Z,51616
2018-04-22T07:30:16.293Z,54592
2018-04-22T07:31:16.051Z,58912
2018-04-22T07:32:16.434Z,64864
2018-04-22T07:33:16.328Z,68864
2018-04-22T07:34:16.339Z,70816
2018-04-22T07:35:16.355Z,71200
2018-04-22T07:36:16.361Z,67840
2018-04-22T07:37:16.123Z,66624
2018-04-22T07:38:16.135Z,64224
2018-04-22T07:39:16.407Z,58400
2018-04-22T07:40:16.425Z,57920
2018-04-22T07:41:15.923Z,69408
2018-04-22T07:42:16.207Z,84128
2018-04-22T07:43:16.454Z,88992
2018-04-22T07:44:16.212Z,87008
2018-04-22T07:45:16.228Z,86240
2018-04-22T07:46:16.498Z,92896
2018-04-22T07:47:16.515Z,94240
2018-04-22T07:48:16.266Z,89984
2018-04-22T07:49:16.539Z,86784
2018-04-22T07:50:16.297Z,86624
2018-04-22T07:51:16.568Z,90144
2018-04-22T07:52:16.578Z,88128
2018-04-22T07:53:16.332Z,78400
2018-04-22T07:54:16.606Z,61248
2018-04-22T07:55:16.621Z,61056
2018-04-22T07:56:16.635Z,65728
2018-04-22T07:57:16.658Z,63584
2018-04-22T07:58:16.405Z,61024
2018-04-22T07:59:16.677Z,62560
2018-04-22T08:00:16.196Z,64992
2018-04-22T08:01:16.446Z,67776
2018-04-22T08:02:16.716Z,70368
2018-04-22T08:03:16.728Z,68128
2018-04-22T08:04:16.506Z,63648
2018-04-22T08:05:16.516Z,61792
2018-04-22T08:06:16.773Z,64160
2018-04-22T08:07:16.799Z,64160
2018-04-22T08:08:16.800Z,58496
2018-04-22T08:09:16.571Z,53824
2018-04-22T08:10:19.172Z,54400
2018-04-22T08:11:16.588Z,59232
2018-04-22T08:12:16.865Z,64448
2018-04-22T08:13:16.866Z,64480
2018-04-22T08:14:16.892Z,62976
2018-04-22T08:15:16.888Z,62112
2018-04-22T08:16:16.700Z,64128
2018-04-22T08:17:16.684Z,66368
2018-04-22T08:18:16.672Z,65792
2018-04-22T08:19:16.950Z,64640
2018-04-22T08:20:16.952Z,64416
2018-04-22T08:21:16.976Z,64576
2018-04-22T08:22:16.737Z,64032
2018-04-22T08:23:16.484Z,61952
2018-04-22T08:24:17.007Z,61728
2018-04-22T08:25:17.018Z,64864
2018-04-22T08:26:17.030Z,66944
2018-04-22T08:27:17.053Z,61600
2018-04-22T08:28:17.094Z,58048
2018-04-22T08:29:17.065Z,61632
2018-04-22T08:30:16.830Z,49216
2018-04-22T08:31:17.099Z,19328
2018-04-22T08:32:16.597Z,8704
2018-04-22T08:33:17.152Z,8528
2018-04-22T08:34:17.143Z,8468
2018-04-22T08:35:17.142Z,8460
2018-04-22T08:36:17.185Z,8440
2018-04-22T08:37:16.944Z,8408
2018-04-22T08:38:17.163Z,8376
2018-04-22T08:39:17.169Z,8356
2018-04-22T08:40:16.933Z,8348
2018-04-22T08:41:17.197Z,8344
2018-04-22T08:42:17.195Z,8348
2018-04-22T08:43:17.204Z,8344
2018-04-22T08:44:16.962Z,8336
2018-04-22T08:45:17.244Z,8300
2018-04-22T08:46:17.225Z,8276
2018-04-22T08:47:17.252Z,8272
2018-04-22T08:48:17.259Z,8248
2018-04-22T08:49:17.258Z,8220
2018-04-22T08:50:17.260Z,8176
2018-04-22T08:51:16.752Z,8144
2018-04-22T08:52:17.259Z,8112
2018-04-22T08:53:17.261Z,8080
2018-04-22T08:54:17.017Z,8064
2018-04-22T08:55:17.286Z,8012
2018-04-22T08:56:17.277Z,7984
2018-04-22T08:57:17.286Z,7956
2018-04-22T08:58:17.285Z,7944
2018-04-22T09:00:17.051Z,7924
2018-04-22T09:01:17.049Z,7896
2018-04-22T09:02:17.132Z,7868
2018-04-22T09:03:17.079Z,7860
2018-04-22T09:04:17.300Z,7844
2018-04-22T09:05:20.049Z,7820
2018-04-22T09:06:17.348Z,7816
2018-04-22T09:07:17.306Z,7804
2018-04-22T09:08:18.071Z,7800
2018-04-22T09:09:17.607Z,7776
2018-04-22T09:10:17.304Z,7752
2018-04-22T09:11:17.669Z,7724
2018-04-22T09:12:17.313Z,7716
2018-04-22T09:13:17.316Z,7728
2018-04-22T09:14:16.802Z,7712
2018-04-22T09:15:17.312Z,7708
2018-04-22T09:16:17.307Z,7696
2018-04-22T09:17:16.811Z,7676
2018-04-22T09:18:17.314Z,7668
2018-04-22T09:19:17.314Z,7652
2018-04-22T09:20:17.323Z,7624
2018-04-22T09:21:17.061Z,7584
2018-04-22T09:22:17.341Z,7548
2018-04-22T09:23:17.329Z,7512
2018-04-22T09:24:17.318Z,7492
2018-04-22T09:25:17.066Z,7452
2018-04-22T09:26:17.327Z,7420
2018-04-22T09:27:17.072Z,7404
2018-04-22T09:28:17.321Z,7400
2018-04-22T09:29:17.332Z,7388
2018-04-22T09:30:17.315Z,7372
2018-04-22T09:31:17.316Z,7360
2018-04-22T09:32:16.810Z,7360
2018-04-22T09:33:17.218Z,7380
2018-04-22T09:34:17.324Z,7392
2018-04-22T09:35:17.320Z,7396
2018-04-22T09:36:17.065Z,7408
2018-04-22T09:37:17.319Z,7412
2018-04-22T09:38:17.315Z,7404
2018-04-22T09:39:17.320Z,7412
2018-04-22T09:40:17.347Z,7416
2018-04-22T09:41:17.068Z,7452
2018-04-22T09:42:17.064Z,7516
2018-04-22T09:43:17.382Z,7604
2018-04-22T09:44:17.323Z,7684
2018-04-22T09:45:17.070Z,7776
2018-04-22T09:46:17.341Z,7924
2018-04-22T09:47:17.320Z,8060
2018-04-22T09:48:17.315Z,8180
2018-04-22T09:49:17.313Z,8180
2018-04-22T09:50:17.370Z,8004
2018-04-22T09:51:17.326Z,7904
2018-04-22T09:52:17.066Z,8040
2018-04-22T09:53:17.099Z,8168
2018-04-22T09:54:17.343Z,8144
2018-04-22T09:55:17.068Z,8044
2018-04-22T09:56:17.067Z,8088
2018-04-22T09:57:17.332Z,8064
2018-04-22T09:58:17.324Z,8000
2018-04-22T09:59:17.071Z,7948
2018-04-22T10:00:17.321Z,7876
2018-04-22T10:01:16.813Z,7780
2018-04-22T10:02:17.323Z,7656
2018-04-22T10:03:17.329Z,7592
2018-04-22T10:04:17.322Z,7540
2018-04-22T10:05:16.815Z,7596
2018-04-22T10:06:17.328Z,7468
2018-04-22T10:07:17.081Z,7712
2018-04-22T10:08:17.344Z,7808
2018-04-22T10:09:17.330Z,7732
2018-04-22T10:10:17.073Z,7708
2018-04-22T10:11:17.122Z,7660
2018-04-22T10:12:17.348Z,7652
2018-04-22T10:13:17.323Z,7520
2018-04-22T10:14:17.073Z,7600
2018-04-22T10:15:17.337Z,7592
2018-04-22T10:16:17.324Z,7564
2018-04-22T10:17:17.325Z,7560
2018-04-22T10:18:16.563Z,7556
2018-04-22T10:19:17.101Z,7552
2018-04-22T10:20:17.325Z,7312
2018-04-22T10:21:17.331Z,7320
2018-04-22T10:22:17.332Z,7344
2018-04-22T10:23:17.081Z,7340
2018-04-22T10:24:17.330Z,7348
2018-04-22T10:25:17.334Z,7252
2018-04-22T10:26:17.327Z,7248
2018-04-22T10:27:17.103Z,7220
2018-04-22T10:28:17.078Z,7024
2018-04-22T10:29:17.339Z,7152
2018-04-22T10:30:17.331Z,7288
2018-04-22T10:31:17.109Z,7264
2018-04-22T10:32:17.327Z,7192
2018-04-22T10:33:17.358Z,7136
2018-04-22T10:34:17.348Z,7104
2018-04-22T10:35:17.075Z,7068
2018-04-22T10:36:17.493Z,7024
2018-04-22T10:37:17.333Z,6960
2018-04-22T10:38:17.334Z,6932
2018-04-22T10:39:17.352Z,6920
2018-04-22T10:40:17.429Z,6888
2018-04-22T10:41:17.334Z,6836
2018-04-22T10:42:16.838Z,6788
2018-04-22T10:43:16.833Z,6756
2018-04-22T10:44:17.093Z,6704
2018-04-22T10:45:17.541Z,6676
2018-04-22T10:46:17.362Z,6660
2018-04-22T10:47:17.336Z,6640
2018-04-22T10:48:17.348Z,6624
2018-04-22T10:49:17.347Z,6608
2018-04-22T10:50:17.341Z,6540
2018-04-22T10:51:17.345Z,6196
2018-04-22T10:52:17.089Z,6572
2018-04-22T10:53:17.389Z,6548
2018-04-22T10:54:17.345Z,6496
2018-04-22T10:55:17.451Z,6420
2018-04-22T10:56:17.347Z,6360
2018-04-22T10:57:17.099Z,6312
2018-04-22T10:58:17.092Z,6252
2018-04-22T10:59:16.925Z,6180
2018-04-22T11:00:17.352Z,6116
2018-04-22T11:01:17.349Z,6052
2018-04-22T11:02:17.356Z,5992
2018-04-22T11:03:17.094Z,5936
2018-04-22T11:04:17.421Z,5896
2018-04-22T11:05:17.433Z,5860
2018-04-22T11:06:17.096Z,5844
2018-04-22T11:07:17.140Z,5832
2018-04-22T11:08:17.352Z,5808
2018-04-22T11:09:17.372Z,5796
2018-04-22T11:10:17.359Z,5780
2018-04-22T11:11:17.360Z,5768
2018-04-22T11:12:17.375Z,5752
2018-04-22T11:13:17.106Z,5748
2018-04-22T11:14:17.544Z,5756
2018-04-22T11:15:16.867Z,5772
2018-04-22T11:16:17.377Z,5756
2018-04-22T11:17:17.359Z,5748
2018-04-22T11:18:17.414Z,5740
2018-04-22T11:19:17.371Z,5756
2018-04-22T11:20:17.364Z,5768
2018-04-22T11:21:17.361Z,5784
2018-04-22T11:22:17.251Z,5812
2018-04-22T11:23:17.373Z,5796
2018-04-22T11:24:17.113Z,5820
2018-04-22T11:25:17.382Z,5880
2018-04-22T11:26:17.379Z,5972
2018-04-22T11:27:17.384Z,6056
2018-04-22T11:28:16.872Z,6124
2018-04-22T11:29:17.367Z,6164
2018-04-22T11:30:17.115Z,6164
2018-04-22T11:31:17.116Z,6184
2018-04-22T11:32:17.370Z,6168
2018-04-22T11:33:17.384Z,6152
2018-04-22T11:34:17.119Z,6108
2018-04-22T11:35:17.379Z,6084
2018-04-22T11:36:17.399Z,6068
2018-04-22T11:37:17.389Z,6048
2018-04-22T11:38:17.127Z,6028
2018-04-22T11:39:17.121Z,6000
2018-04-22T11:40:17.379Z,5992
2018-04-22T11:41:17.392Z,5996
2018-04-22T11:42:16.890Z,6012
2018-04-22T11:43:16.621Z,6060
2018-04-22T11:44:17.413Z,6080
2018-04-22T11:45:17.380Z,6112
2018-04-22T11:46:17.390Z,6104
2018-04-22T11:47:17.387Z,6072
2018-04-22T11:48:17.405Z,6116
2018-04-22T11:49:17.393Z,6172
2018-04-22T11:50:17.401Z,6216
2018-04-22T11:51:17.397Z,6252
2018-04-22T11:52:17.149Z,6272
2018-04-22T11:53:17.398Z,6248
2018-04-22T11:54:17.144Z,6264
2018-04-22T11:55:16.886Z,6276
2018-04-22T11:56:17.391Z,6248
2018-04-22T11:57:17.147Z,6268
2018-04-22T11:58:17.415Z,6240
2018-04-22T11:59:17.394Z,6208
2018-04-22T12:00:17.498Z,6168
2018-04-22T12:01:17.402Z,6088
2018-04-22T12:02:17.403Z,6024
2018-04-22T12:03:17.408Z,5980
2018-04-22T12:04:17.398Z,5960
2018-04-22T12:05:17.155Z,5952
2018-04-22T12:06:17.405Z,5824
2018-04-22T12:07:17.421Z,5796
2018-04-22T12:08:17.407Z,5908
2018-04-22T12:09:17.425Z,5948
2018-04-22T12:10:17.152Z,6004
2018-04-22T12:11:17.416Z,6016
2018-04-22T12:12:17.155Z,6024
2018-04-22T12:13:16.905Z,6000
2018-04-22T12:14:17.160Z,6096
2018-04-22T12:15:17.414Z,6160
2018-04-22T12:16:17.437Z,6192
2018-04-22T12:17:17.437Z,6264
2018-04-22T12:18:17.421Z,6252
2018-04-22T12:19:17.417Z,6260
2018-04-22T12:20:17.466Z,6220
2018-04-22T12:21:17.424Z,6148
2018-04-22T12:22:17.423Z,6060
2018-04-22T12:23:17.471Z,5972
2018-04-22T12:24:17.444Z,6060
2018-04-22T12:25:17.187Z,6136
2018-04-22T12:26:17.177Z,6140
2018-04-22T12:27:17.186Z,6100
2018-04-22T12:28:17.431Z,6104
2018-04-22T12:29:17.177Z,6028
2018-04-22T12:30:17.181Z,6076
2018-04-22T12:31:16.920Z,6088
2018-04-22T12:32:17.174Z,6064
2018-04-22T12:33:17.182Z,6072
2018-04-22T12:34:17.441Z,6052
2018-04-22T12:35:17.178Z,6080
2018-04-22T12:36:17.188Z,6044
2018-04-22T12:37:16.925Z,6016
2018-04-22T12:38:17.485Z,5984
2018-04-22T12:39:17.463Z,5900
2018-04-22T12:40:17.188Z,5888
2018-04-22T12:41:17.435Z,5916
2018-04-22T12:42:17.437Z,5916
2018-04-22T12:43:16.683Z,5888
2018-04-22T12:44:16.932Z,5940
2018-04-22T12:45:17.198Z,5972
2018-04-22T12:46:17.443Z,5968
2018-04-22T12:47:17.204Z,6008
2018-04-22T12:48:17.471Z,6036
2018-04-22T12:49:17.446Z,6096
2018-04-22T12:50:17.215Z,6116
2018-04-22T12:51:17.475Z,6180
2018-04-22T12:52:17.464Z,6220
2018-04-22T12:53:17.205Z,6260
2018-04-22T12:54:17.200Z,6268
2018-04-22T12:55:17.218Z,6320
2018-04-22T12:56:17.460Z,6344
2018-04-22T12:57:17.459Z,6368
2018-04-22T12:58:17.458Z,6356
2018-04-22T12:59:17.557Z,6340
2018-04-22T13:00:17.222Z,6412
2018-04-22T13:01:17.463Z,6512
2018-04-22T13:02:17.457Z,6596
2018-04-22T13:03:17.499Z,6688
2018-04-22T13:04:17.467Z,6760
2018-04-22T13:05:17.215Z,6868
2018-04-22T13:06:17.465Z,7012
2018-04-22T13:07:17.253Z,7076
2018-04-22T13:08:17.474Z,7116
2018-04-22T13:09:17.479Z,7220
2018-04-22T13:10:17.481Z,7292
2018-04-22T13:11:17.218Z,7296
2018-04-22T13:12:17.479Z,7196
2018-04-22T13:13:17.479Z,7136
2018-04-22T13:14:17.308Z,7124
2018-04-22T13:15:17.230Z,7136
2018-04-22T13:16:16.970Z,7144
2018-04-22T13:17:17.479Z,7140
2018-04-22T13:18:17.489Z,7148
2018-04-22T13:19:17.482Z,7152
2018-04-22T13:20:17.231Z,7152
2018-04-22T13:21:17.233Z,7156
2018-04-22T13:22:17.231Z,7128
2018-04-22T13:23:17.490Z,7100
2018-04-22T13:24:17.494Z,7052
2018-04-22T13:25:17.490Z,6976
2018-04-22T13:26:17.514Z,6872
2018-04-22T13:27:17.238Z,6784
2018-04-22T13:28:17.493Z,6704
2018-04-22T13:29:17.502Z,6604
2018-04-22T13:30:17.265Z,6472
2018-04-22T13:31:17.509Z,6396
2018-04-22T13:32:17.505Z,6340
2018-04-22T13:33:17.513Z,6272
2018-04-22T13:34:17.250Z,6212
2018-04-22T13:35:17.254Z,6220